Time;durP1;ratioP1;P1;durP2;ratioP2;P2;SDS_P1;SDS_P2;PMS_P1;PMS_P2;Temp;Humidity;BMP_temperature;BMP_pressure;BME280_temperature;BME280_humidity;BME280_pressure;Samples;Min_cycle;Max_cycle;Signal;HPM_P1;HPM_P2
2022/10/15 00:02:22;;;;;;;;;0.00;0.00;;;;;;;;5050497;28;8858;-89
2022/10/15 00:04:47;;;;;;;;;0.00;0.00;;;;;;;;5050766;28;8959;-89
2022/10/15 00:07:12;;;;;;;;;0.00;0.00;;;;;;;;5049671;28;8816;-90
2022/10/15 00:09:37;;;;;;;;;0.00;0.00;;;;;;;;5050438;28;8806;-90
2022/10/15 00:12:03;;;;;;;;;0.00;0.00;;;;;;;;5060492;28;8856;-89
2022/10/15 00:14:28;;;;;;;;;0.00;0.00;;;;;;;;5051686;28;8793;-89
2022/10/15 00:16:53;;;;;;;;;0.00;0.00;;;;;;;;5032884;28;8827;-90
2022/10/15 00:19:18;;;;;;;;;0.00;0.00;;;;;;;;5050969;28;8807;-89
2022/10/15 00:21:43;;;;;;;;;0.00;0.00;;;;;;;;5050220;28;8829;-89
2022/10/15 00:24:09;;;;;;;;;0.00;0.00;;;;;;;;5050307;28;8818;-89
2022/10/15 00:26:34;;;;;;;;;0.00;0.00;;;;;;;;5031361;28;9866;-89
2022/10/15 00:29:01;;;;;;;;;0.00;0.00;;;;;;;;5059895;28;8998;-89
2022/10/15 00:31:27;;;;;;;;;0.00;0.00;;;;;;;;5051913;28;8823;-89
2022/10/15 00:33:54;;;;;;;;;0.00;0.00;;;;;;;;5030007;28;39501;-88
2022/10/15 00:36:21;;;;;;;;;0.00;0.00;;;;;;;;5019898;28;47453;-89
2022/10/15 00:38:46;;;;;;;;;0.00;0.00;;;;;;;;5012248;28;28677;-89
2022/10/15 00:41:13;;;;;;;;;0.00;0.00;;;;;;;;5009408;28;45309;-88
2022/10/15 00:43:46;;;;;;;;;0.00;0.00;;;;;;;;5030721;28;28516;-89
2022/10/15 00:46:15;;;;;;;;;0.00;0.00;;;;;;;;5044704;28;44750;-88
2022/10/15 00:48:40;;;;;;;;;0.00;0.00;;;;;;;;5070155;28;8785;-89
2022/10/15 00:51:05;;;;;;;;;0.00;0.00;;;;;;;;5069438;28;11427;-89
2022/10/15 00:53:31;;;;;;;;;0.00;0.00;;;;;;;;5069941;28;8939;-89
2022/10/15 00:55:57;;;;;;;;;0.00;0.00;;;;;;;;5051667;28;8862;-89
2022/10/15 00:58:27;;;;;;;;;0.00;0.00;;;;;;;;5057069;28;45273;-88
2022/10/15 01:00:53;;;;;;;;;0.00;0.00;;;;;;;;5038581;28;34720;-88
2022/10/15 01:03:18;;;;;;;;;0.00;0.00;;;;;;;;5030175;28;45427;-88
2022/10/15 01:05:45;;;;;;;;;0.00;0.00;;;;;;;;5028644;28;45342;-88
2022/10/15 01:08:11;;;;;;;;;0.00;0.00;;;;;;;;5024147;28;44889;-88
2022/10/15 01:10:42;;;;;;;;;0.00;0.00;;;;;;;;5034510;28;28358;-88
2022/10/15 01:13:18;;;;;;;;;0.00;0.00;;;;;;;;5011564;28;28420;-88
2022/10/15 01:15:54;;;;;;;;;0.00;0.00;;;;;;;;5036019;28;42344;-89
2022/10/15 01:18:23;;;;;;;;;0.00;0.00;;;;;;;;5029623;28;28486;-89
2022/10/15 01:20:54;;;;;;;;;0.00;0.00;;;;;;;;5011578;28;28686;-89
2022/10/15 01:23:32;;;;;;;;;0.00;0.00;;;;;;;;5011827;28;28552;-88
2022/10/15 01:26:03;;;;;;;;;0.00;0.00;;;;;;;;5014123;28;30581;-88
2022/10/15 01:28:38;;;;;;;;;0.00;0.00;;;;;;;;5033208;28;28477;-88
2022/10/15 01:31:26;;;;;;;;;0.00;0.00;;;;;;;;5034892;28;28469;-88
2022/10/15 01:34:03;;;;;;;;;0.00;0.00;;;;;;;;4935907;28;28407;-88
2022/10/15 01:36:32;;;;;;;;;0.00;0.00;;;;;;;;4935477;28;30798;-88
2022/10/15 01:39:10;;;;;;;;;0.00;0.00;;;;;;;;4935395;28;29582;-88
2022/10/15 01:41:40;;;;;;;;;0.00;0.00;;;;;;;;4931692;28;45430;-89
2022/10/15 01:44:11;;;;;;;;;0.00;0.00;;;;;;;;4936007;28;29043;-88
2022/10/15 01:46:48;;;;;;;;;0.00;0.00;;;;;;;;4951616;28;28471;-88
2022/10/15 01:49:16;;;;;;;;;0.00;0.00;;;;;;;;4952179;28;28471;-89
2022/10/15 01:51:42;;;;;;;;;0.00;0.00;;;;;;;;4951605;28;28619;-89
2022/10/15 01:54:11;;;;;;;;;0.00;0.00;;;;;;;;4927264;28;28497;-89
2022/10/15 01:56:37;;;;;;;;;0.00;0.00;;;;;;;;4931529;28;29452;-89
2022/10/15 01:59:04;;;;;;;;;0.00;0.00;;;;;;;;4929682;28;45469;-88
2022/10/15 02:01:29;;;;;;;;;0.00;0.00;;;;;;;;4936685;28;28539;-89
2022/10/15 02:03:54;;;;;;;;;0.00;0.00;;;;;;;;4917074;28;45423;-89
2022/10/15 02:06:26;;;;;;;;;0.00;0.00;;;;;;;;4952925;28;29835;-89
2022/10/15 02:09:14;;;;;;;;;0.00;0.00;;;;;;;;4922389;28;27905;-89
2022/10/15 02:11:52;;;;;;;;;0.00;0.00;;;;;;;;5019086;28;28446;-89
2022/10/15 02:14:26;;;;;;;;;0.00;0.00;;;;;;;;5023992;28;28853;-89
2022/10/15 02:17:03;;;;;;;;;0.00;0.00;;;;;;;;5018255;28;44667;-89
2022/10/15 02:19:28;;;;;;;;;0.00;0.00;;;;;;;;5055956;28;27806;-89
2022/10/15 02:21:56;;;;;;;;;0.00;0.00;;;;;;;;5049382;28;27815;-89
2022/10/15 02:24:27;;;;;;;;;0.00;0.00;;;;;;;;5042340;28;9960;-88
2022/10/15 02:26:53;;;;;;;;;0.00;0.00;;;;;;;;5039531;28;11521;-88
2022/10/15 02:29:21;;;;;;;;;0.00;0.00;;;;;;;;5064799;28;28516;-88
2022/10/15 02:31:48;;;;;;;;;0.00;0.00;;;;;;;;5034139;28;8811;-89
2022/10/15 02:34:16;;;;;;;;;0.00;0.00;;;;;;;;5034117;28;12203;-89
2022/10/15 02:36:41;;;;;;;;;0.00;0.00;;;;;;;;5033445;28;11501;-89
2022/10/15 02:39:10;;;;;;;;;0.00;0.00;;;;;;;;5050207;28;12156;-89
2022/10/15 02:41:35;;;;;;;;;0.00;0.00;;;;;;;;5051176;28;8783;-89
2022/10/15 02:44:02;;;;;;;;;0.00;0.00;;;;;;;;5066751;28;12210;-89
2022/10/15 02:46:27;;;;;;;;;0.00;0.00;;;;;;;;5053885;28;9586;-88
2022/10/15 02:48:52;;;;;;;;;0.00;0.00;;;;;;;;5071565;28;11507;-89
2022/10/15 02:51:17;;;;;;;;;0.00;0.00;;;;;;;;5071458;28;8785;-88
2022/10/15 02:53:42;;;;;;;;;0.00;0.00;;;;;;;;5071449;28;8827;-88
2022/10/15 02:56:07;;;;;;;;;0.00;0.00;;;;;;;;5070833;28;9581;-89
2022/10/15 02:58:33;;;;;;;;;0.00;0.00;;;;;;;;5058180;28;8795;-89
2022/10/15 03:00:58;;;;;;;;;0.00;0.00;;;;;;;;5033504;28;8799;-89
2022/10/15 03:03:23;;;;;;;;;0.00;0.00;;;;;;;;5033646;28;9021;-89
2022/10/15 03:05:48;;;;;;;;;0.00;0.00;;;;;;;;5051384;28;8902;-89
2022/10/15 03:08:13;;;;;;;;;0.00;0.00;;;;;;;;5032476;28;8823;-89
2022/10/15 03:10:39;;;;;;;;;0.00;0.00;;;;;;;;5033303;28;9720;-89
2022/10/15 03:13:05;;;;;;;;;0.00;0.00;;;;;;;;5044429;28;8936;-89
2022/10/15 03:15:30;;;;;;;;;0.00;0.00;;;;;;;;5052927;28;8823;-89
2022/10/15 03:17:55;;;;;;;;;0.00;0.00;;;;;;;;5069688;28;8824;-88
2022/10/15 03:20:21;;;;;;;;;0.00;0.00;;;;;;;;5067749;28;8812;-89
2022/10/15 03:22:46;;;;;;;;;0.00;0.00;;;;;;;;5048516;28;8847;-88
2022/10/15 03:25:11;;;;;;;;;0.00;0.00;;;;;;;;5061136;28;8831;-89
2022/10/15 03:27:36;;;;;;;;;0.00;0.00;;;;;;;;5045672;28;8935;-88
2022/10/15 03:30:02;;;;;;;;;0.00;0.00;;;;;;;;5053051;28;8848;-89
2022/10/15 03:32:27;;;;;;;;;0.00;0.00;;;;;;;;5072570;28;9140;-88
2022/10/15 03:34:52;;;;;;;;;0.00;0.00;;;;;;;;5054735;28;8817;-88
2022/10/15 03:37:17;;;;;;;;;0.00;0.00;;;;;;;;5072065;28;8821;-88
2022/10/15 03:39:42;;;;;;;;;0.00;0.00;;;;;;;;5071445;28;8792;-89
2022/10/15 03:42:08;;;;;;;;;0.00;0.00;;;;;;;;5055367;28;8798;-88
2022/10/15 03:44:33;;;;;;;;;0.00;0.00;;;;;;;;5079106;28;8835;-89
2022/10/15 03:46:58;;;;;;;;;0.00;0.00;;;;;;;;5075363;28;8827;-89
2022/10/15 03:49:24;;;;;;;;;0.00;0.00;;;;;;;;5057295;28;8780;-89
2022/10/15 03:51:49;;;;;;;;;0.00;0.00;;;;;;;;5051003;28;8830;-88
2022/10/15 03:54:14;;;;;;;;;0.00;0.00;;;;;;;;5059962;28;8833;-89
2022/10/15 03:56:39;;;;;;;;;0.00;0.00;;;;;;;;5051453;28;9147;-89
2022/10/15 03:59:04;;;;;;;;;0.00;0.00;;;;;;;;5069071;28;8909;-89
2022/10/15 04:01:30;;;;;;;;;0.00;0.00;;;;;;;;5052756;28;8831;-88
2022/10/15 04:03:55;;;;;;;;;0.00;0.00;;;;;;;;5050932;28;8784;-89
2022/10/15 04:06:20;;;;;;;;;0.00;0.00;;;;;;;;5031675;28;8839;-90
2022/10/15 04:08:45;;;;;;;;;0.00;0.00;;;;;;;;5048563;28;8821;-89
2022/10/15 04:11:10;;;;;;;;;0.00;0.00;;;;;;;;5069861;28;8781;-89
2022/10/15 04:13:35;;;;;;;;;0.00;0.00;;;;;;;;5070687;28;8923;-89
2022/10/15 04:16:04;;;;;;;;;0.00;0.00;;;;;;;;5070229;28;8821;-89
2022/10/15 04:18:29;;;;;;;;;0.00;0.00;;;;;;;;5070444;28;8828;-88
2022/10/15 04:20:57;;;;;;;;;0.00;0.00;;;;;;;;5051484;28;12229;-89
2022/10/15 04:23:22;;;;;;;;;0.00;0.00;;;;;;;;5069673;28;8797;-89
2022/10/15 04:25:47;;;;;;;;;0.00;0.00;;;;;;;;5054949;28;11523;-89
2022/10/15 04:28:13;;;;;;;;;0.00;0.00;;;;;;;;5032074;28;8818;-88
2022/10/15 04:30:38;;;;;;;;;0.00;0.00;;;;;;;;5043088;28;8824;-89
2022/10/15 04:33:03;;;;;;;;;0.00;0.00;;;;;;;;5052572;28;8813;-89
2022/10/15 04:35:28;;;;;;;;;0.00;0.00;;;;;;;;5069427;28;8793;-89
2022/10/15 04:37:55;;;;;;;;;0.00;0.00;;;;;;;;5070132;28;8825;-89
2022/10/15 04:40:21;;;;;;;;;0.00;0.00;;;;;;;;5038589;28;8799;-89
2022/10/15 04:42:46;;;;;;;;;0.00;0.00;;;;;;;;5031534;28;11462;-89
2022/10/15 04:45:11;;;;;;;;;0.00;0.00;;;;;;;;5050104;28;8796;-89
2022/10/15 04:47:36;;;;;;;;;0.00;0.00;;;;;;;;5049806;28;8831;-88
2022/10/15 04:50:02;;;;;;;;;0.00;0.00;;;;;;;;5059988;28;8919;-88
2022/10/15 04:52:27;;;;;;;;;0.00;0.00;;;;;;;;5069628;28;8809;-87
2022/10/15 04:54:52;;;;;;;;;0.00;0.00;;;;;;;;5069506;28;8785;-87
2022/10/15 04:57:17;;;;;;;;;0.00;0.00;;;;;;;;5050797;28;8824;-89
2022/10/15 04:59:43;;;;;;;;;0.00;0.00;;;;;;;;5051889;28;8956;-88
2022/10/15 05:02:08;;;;;;;;;0.00;0.00;;;;;;;;5071390;28;8890;-88
2022/10/15 05:04:33;;;;;;;;;0.00;0.00;;;;;;;;5073369;28;9538;-88
2022/10/15 05:06:58;;;;;;;;;0.00;0.00;;;;;;;;5072557;28;8845;-88
2022/10/15 05:09:24;;;;;;;;;0.00;0.00;;;;;;;;5055091;28;8793;-88
2022/10/15 05:11:49;;;;;;;;;0.00;0.00;;;;;;;;5054615;28;8829;-87
2022/10/15 05:14:14;;;;;;;;;0.00;0.00;;;;;;;;5054980;28;8910;-88
2022/10/15 05:16:39;;;;;;;;;0.00;0.00;;;;;;;;5055014;28;8817;-88
2022/10/15 05:19:05;;;;;;;;;0.00;0.00;;;;;;;;5073073;28;9547;-89
2022/10/15 05:21:31;;;;;;;;;0.00;0.00;;;;;;;;5067239;28;8795;-88
2022/10/15 05:23:57;;;;;;;;;0.00;0.00;;;;;;;;5034817;28;8815;-88
2022/10/15 05:26:23;;;;;;;;;0.00;0.00;;;;;;;;5052256;28;8783;-88
2022/10/15 05:28:49;;;;;;;;;0.00;0.00;;;;;;;;5052799;28;8807;-88
2022/10/15 05:31:15;;;;;;;;;0.00;0.00;;;;;;;;5050567;28;11421;-89
2022/10/15 05:33:41;;;;;;;;;0.00;0.00;;;;;;;;5072814;28;8847;-89
2022/10/15 05:36:17;;;;;;;;;0.00;0.00;;;;;;;;5071555;28;11429;-89
2022/10/15 05:38:42;;;;;;;;;0.00;0.00;;;;;;;;5072251;28;8866;-88
2022/10/15 05:41:08;;;;;;;;;0.00;0.00;;;;;;;;5053908;28;11542;-89
2022/10/15 05:43:33;;;;;;;;;0.00;0.00;;;;;;;;5072810;28;8781;-88
2022/10/15 05:45:58;;;;;;;;;0.00;0.00;;;;;;;;5054648;28;8886;-88
2022/10/15 05:48:23;;;;;;;;;0.00;0.00;;;;;;;;5072582;28;8813;-88
2022/10/15 05:50:48;;;;;;;;;0.00;0.00;;;;;;;;5053608;28;8837;-89
2022/10/15 05:53:14;;;;;;;;;0.00;0.00;;;;;;;;5071442;28;8953;-89
2022/10/15 05:55:39;;;;;;;;;0.00;0.00;;;;;;;;5034303;28;8981;-88
2022/10/15 05:58:04;;;;;;;;;0.00;0.00;;;;;;;;5034444;28;8893;-89
2022/10/15 06:00:29;;;;;;;;;0.00;0.00;;;;;;;;5054335;28;9555;-89
2022/10/15 06:02:55;;;;;;;;;0.00;0.00;;;;;;;;5054089;28;8829;-88
2022/10/15 06:05:20;;;;;;;;;0.00;0.00;;;;;;;;5054330;28;8819;-87
2022/10/15 06:07:45;;;;;;;;;0.00;0.00;;;;;;;;5053105;28;8825;-87
2022/10/15 06:10:10;;;;;;;;;0.00;0.00;;;;;;;;5053760;28;9566;-88
2022/10/15 06:12:37;;;;;;;;;0.00;0.00;;;;;;;;5053768;28;8809;-88
2022/10/15 06:15:03;;;;;;;;;0.00;0.00;;;;;;;;5072313;28;8787;-88
2022/10/15 06:17:28;;;;;;;;;0.00;0.00;;;;;;;;5053997;28;11420;-88
2022/10/15 06:19:53;;;;;;;;;0.00;0.00;;;;;;;;5072428;28;8843;-84
2022/10/15 06:22:18;;;;;;;;;0.00;0.00;;;;;;;;5071435;28;8863;-84
2022/10/15 06:24:44;;;;;;;;;0.00;0.00;;;;;;;;5071595;28;8809;-84
2022/10/15 06:27:10;;;;;;;;;0.00;0.00;;;;;;;;5071240;28;8836;-85
2022/10/15 06:29:35;;;;;;;;;0.00;0.00;;;;;;;;5071933;28;8789;-84
2022/10/15 06:32:00;;;;;;;;;0.00;0.00;;;;;;;;5071385;28;11433;-84
2022/10/15 06:34:26;;;;;;;;;0.00;0.00;;;;;;;;5072112;28;8805;-85
2022/10/15 06:36:51;;;;;;;;;0.00;0.00;;;;;;;;5057900;28;8819;-86
2022/10/15 06:39:16;;;;;;;;;0.00;0.00;;;;;;;;5038402;28;8833;-85
2022/10/15 06:41:41;;;;;;;;;0.00;0.00;;;;;;;;5065745;28;8894;-84
2022/10/15 06:44:07;;;;;;;;;0.00;0.00;;;;;;;;5070794;28;8797;-83
2022/10/15 06:46:32;;;;;;;;;0.00;0.00;;;;;;;;5066607;28;8827;-85
2022/10/15 06:48:57;;;;;;;;;0.00;0.00;;;;;;;;5051356;28;8811;-84
2022/10/15 06:51:22;;;;;;;;;0.00;0.00;;;;;;;;5053551;28;9010;-85
2022/10/15 06:53:47;;;;;;;;;0.00;0.00;;;;;;;;5052453;28;9564;-85
2022/10/15 06:56:12;;;;;;;;;0.00;0.00;;;;;;;;5054379;28;8813;-82
2022/10/15 06:58:40;;;;;;;;;0.00;0.00;;;;;;;;5065548;28;8856;-84
2022/10/15 07:01:05;;;;;;;;;0.00;0.00;;;;;;;;5070867;28;8790;-84
2022/10/15 07:03:30;;;;;;;;;0.00;0.00;;;;;;;;5041331;28;12305;-84
2022/10/15 07:06:00;;;;;;;;;0.00;0.00;;;;;;;;5052677;28;8823;-84
2022/10/15 07:08:25;;;;;;;;;0.00;0.00;;;;;;;;5067670;28;8839;-85
2022/10/15 07:10:50;;;;;;;;;0.00;0.00;;;;;;;;5050782;28;11397;-86
2022/10/15 07:13:15;;;;;;;;;0.00;0.00;;;;;;;;5068902;28;8843;-86
2022/10/15 07:15:40;;;;;;;;;0.00;0.00;;;;;;;;5058221;28;8823;-85
2022/10/15 07:18:05;;;;;;;;;0.00;0.00;;;;;;;;5063981;28;8813;-85
2022/10/15 07:20:31;;;;;;;;;0.00;0.00;;;;;;;;5055150;28;8896;-85
2022/10/15 07:22:57;;;;;;;;;0.00;0.00;;;;;;;;5061758;28;8839;-86
2022/10/15 07:25:23;;;;;;;;;0.00;0.00;;;;;;;;5053692;28;8784;-86
2022/10/15 07:27:48;;;;;;;;;0.00;0.00;;;;;;;;5051262;28;11458;-85
2022/10/15 07:30:13;;;;;;;;;0.00;0.00;;;;;;;;5066901;28;8866;-86
2022/10/15 07:32:38;;;;;;;;;0.00;0.00;;;;;;;;5062856;28;9582;-85
2022/10/15 07:35:04;;;;;;;;;0.00;0.00;;;;;;;;5059663;28;8919;-87
2022/10/15 07:37:30;;;;;;;;;0.00;0.00;;;;;;;;5064599;28;8936;-86
2022/10/15 07:39:55;;;;;;;;;0.00;0.00;;;;;;;;5046537;28;8803;-86
2022/10/15 07:42:20;;;;;;;;;0.00;0.00;;;;;;;;5062380;28;11473;-86
2022/10/15 07:44:46;;;;;;;;;0.00;0.00;;;;;;;;5068581;28;8832;-86
2022/10/15 07:47:11;;;;;;;;;0.00;0.00;;;;;;;;5036552;28;8841;-86
2022/10/15 07:49:36;;;;;;;;;0.00;0.00;;;;;;;;5044875;28;8820;-87
2022/10/15 07:52:01;;;;;;;;;0.00;0.00;;;;;;;;5038236;28;8819;-86
2022/10/15 07:54:26;;;;;;;;;0.00;0.00;;;;;;;;5047720;28;8900;-86
2022/10/15 07:56:51;;;;;;;;;0.00;0.00;;;;;;;;5035706;28;8844;-85
2022/10/15 07:59:17;;;;;;;;;0.00;0.00;;;;;;;;5059957;28;8790;-86
2022/10/15 08:01:42;;;;;;;;;0.00;0.00;;;;;;;;5063186;28;8917;-86
2022/10/15 08:04:07;;;;;;;;;0.00;0.00;;;;;;;;5050209;28;8805;-86
2022/10/15 08:06:32;;;;;;;;;0.00;0.00;;;;;;;;5044554;28;8872;-86
2022/10/15 08:08:57;;;;;;;;;15.00;10.00;;;;;;;;5055083;28;8855;-86
2022/10/15 08:11:23;;;;;;;;;0.00;0.00;;;;;;;;5045696;28;9534;-87
2022/10/15 08:13:48;;;;;;;;;0.00;0.00;;;;;;;;5042489;28;8957;-85
2022/10/15 08:16:14;;;;;;;;;0.00;0.00;;;;;;;;5042688;28;8902;-85
2022/10/15 08:18:39;;;;;;;;;0.00;0.00;;;;;;;;5039661;28;9610;-86
2022/10/15 08:21:06;;;;;;;;;0.00;0.00;;;;;;;;5050144;28;11454;-85
2022/10/15 08:23:31;;;;;;;;;0.00;0.00;;;;;;;;5057258;28;8959;-85
2022/10/15 08:26:00;;;;;;;;;0.00;0.00;;;;;;;;5056605;28;11505;-85
2022/10/15 08:28:28;;;;;;;;;0.00;0.00;;;;;;;;5053520;28;8818;-85
2022/10/15 08:30:56;;;;;;;;;0.00;0.00;;;;;;;;5066654;28;12225;-86
2022/10/15 08:33:21;;;;;;;;;0.00;0.00;;;;;;;;5060563;28;11435;-84
2022/10/15 08:35:46;;;;;;;;;0.00;0.00;;;;;;;;5058983;28;11535;-85
2022/10/15 08:38:12;;;;;;;;;0.00;0.00;;;;;;;;5063261;28;8805;-84
2022/10/15 08:40:39;;;;;;;;;0.00;0.00;;;;;;;;5058557;28;9642;-84
2022/10/15 08:43:05;;;;;;;;;0.00;0.00;;;;;;;;5061966;28;8789;-86
2022/10/15 08:45:37;;;;;;;;;0.00;0.00;;;;;;;;5065049;28;11446;-83
2022/10/15 08:48:09;;;;;;;;;0.00;0.00;;;;;;;;5062914;28;8943;-85
2022/10/15 08:50:40;;;;;;;;;0.00;0.00;;;;;;;;5047303;28;11415;-87
2022/10/15 08:53:10;;;;;;;;;0.00;0.00;;;;;;;;5061567;28;12227;-83
2022/10/15 08:55:38;;;;;;;;;0.00;0.00;;;;;;;;5067173;28;11410;-85
2022/10/15 08:58:21;;;;;;;;;0.00;0.00;;;;;;;;5058678;28;11438;-84
2022/10/15 09:00:50;;;;;;;;;0.00;0.00;;;;;;;;5070016;28;11405;-88
2022/10/15 09:03:25;;;;;;;;;0.00;0.00;;;;;;;;5064337;28;11422;-86
2022/10/15 09:06:00;;;;;;;;;0.00;0.00;;;;;;;;5058975;28;11508;-85
2022/10/15 09:08:40;;;;;;;;;0.00;0.00;;;;;;;;5063084;28;11475;-84
2022/10/15 09:11:19;;;;;;;;;0.00;0.00;;;;;;;;5054316;28;11425;-84
2022/10/15 09:13:45;;;;;;;;;0.00;0.00;;;;;;;;5065322;28;11391;-87
2022/10/15 09:16:18;;;;;;;;;0.00;0.00;;;;;;;;5061980;28;11608;-84
2022/10/15 09:18:48;;;;;;;;;0.00;0.00;;;;;;;;5058478;28;8789;-86
2022/10/15 09:21:13;;;;;;;;;0.00;0.00;;;;;;;;5068207;28;11409;-84
2022/10/15 09:23:40;;;;;;;;;0.00;0.00;;;;;;;;5056714;28;11443;-91
2022/10/15 09:26:11;;;;;;;;;0.00;0.00;;;;;;;;5056282;28;8894;-86
2022/10/15 09:28:43;;;;;;;;;0.00;0.00;;;;;;;;5040435;28;11444;-85
2022/10/15 09:31:09;;;;;;;;;0.00;0.00;;;;;;;;5067546;28;11497;-86
2022/10/15 09:33:41;;;;;;;;;0.00;0.00;;;;;;;;5047047;28;11436;-85
2022/10/15 09:36:24;;;;;;;;;0.00;0.00;;;;;;;;5056160;28;11418;-87
2022/10/15 09:38:59;;;;;;;;;0.00;0.00;;;;;;;;5066341;28;11463;-88
2022/10/15 09:41:33;;;;;;;;;0.00;0.00;;;;;;;;5035337;28;11422;-85
2022/10/15 09:44:00;;;;;;;;;0.00;0.00;;;;;;;;5041201;28;11418;-86
2022/10/15 09:46:25;;;;;;;;;0.00;0.00;;;;;;;;5067087;28;11413;-85
2022/10/15 09:49:01;;;;;;;;;0.00;0.00;;;;;;;;5055484;28;12318;-85
2022/10/15 09:51:34;;;;;;;;;0.00;0.00;;;;;;;;5057682;28;8892;-85
2022/10/15 09:54:18;;;;;;;;;0.00;0.00;;;;;;;;5061006;28;11430;-85
2022/10/15 09:56:50;;;;;;;;;0.00;0.00;;;;;;;;5054447;28;11417;-87
2022/10/15 09:59:17;;;;;;;;;0.00;0.00;;;;;;;;5032026;28;45298;-87
2022/10/15 10:01:55;;;;;;;;;0.00;0.00;;;;;;;;5041512;28;45430;-86
2022/10/15 10:04:21;;;;;;;;;0.00;0.00;;;;;;;;5062010;28;8776;-86
2022/10/15 10:06:48;;;;;;;;;0.00;0.00;;;;;;;;5062959;28;12217;-87
2022/10/15 10:09:21;;;;;;;;;0.00;0.00;;;;;;;;5041541;28;8809;-85
2022/10/15 10:11:51;;;;;;;;;0.00;0.00;;;;;;;;5057311;28;11428;-82
2022/10/15 10:14:25;;;;;;;;;0.00;0.00;;;;;;;;5057539;28;11400;-87
2022/10/15 10:17:26;;;;;;;;;0.00;0.00;;;;;;;;5039212;28;11370;-87
2022/10/15 10:20:09;;;;;;;;;0.00;0.00;;;;;;;;4953484;28;11616;-86
2022/10/15 10:22:48;;;;;;;;;0.00;0.00;;;;;;;;4968678;28;11565;-89
2022/10/15 10:25:25;;;;;;;;;0.00;0.00;;;;;;;;4966713;28;11606;-90
2022/10/15 10:27:50;;;;;;;;;0.00;0.00;;;;;;;;4965540;28;11558;-88
2022/10/15 10:30:15;;;;;;;;;0.00;0.00;;;;;;;;4961415;28;11582;-88
2022/10/15 10:32:42;;;;;;;;;0.00;0.00;;;;;;;;4961086;28;8853;-87
2022/10/15 10:35:14;;;;;;;;;0.00;0.00;;;;;;;;4944605;28;8798;-89
2022/10/15 10:37:42;;;;;;;;;0.00;0.00;;;;;;;;4957718;28;11609;-89
2022/10/15 10:40:27;;;;;;;;;0.00;0.00;;;;;;;;4968173;28;11539;-88
2022/10/15 10:43:11;;;;;;;;;0.00;0.00;;;;;;;;4966918;28;11515;-86
2022/10/15 10:45:36;;;;;;;;;0.00;0.00;;;;;;;;4965770;28;11689;-84
2022/10/15 10:48:18;;;;;;;;;0.00;0.00;;;;;;;;4969360;28;12347;-87
2022/10/15 10:50:43;;;;;;;;;0.00;0.00;;;;;;;;4969272;28;8795;-85
2022/10/15 10:53:13;;;;;;;;;0.00;0.00;;;;;;;;4983368;28;11464;-85
2022/10/15 10:55:39;;;;;;;;;0.00;0.00;;;;;;;;5041793;28;8815;-85
2022/10/15 10:58:05;;;;;;;;;0.00;0.00;;;;;;;;5056161;28;12151;-84
2022/10/15 11:00:33;;;;;;;;;0.00;0.00;;;;;;;;5064200;28;8791;-85
2022/10/15 11:02:58;;;;;;;;;0.00;0.00;;;;;;;;5053095;28;8780;-87
2022/10/15 11:05:28;;;;;;;;;0.00;0.00;;;;;;;;5044693;28;11466;-86
2022/10/15 11:08:09;;;;;;;;;0.00;0.00;;;;;;;;5048898;28;8918;-87
2022/10/15 11:10:40;;;;;;;;;0.00;0.00;;;;;;;;5064115;28;11523;-87
2022/10/15 11:13:08;;;;;;;;;0.00;0.00;;;;;;;;5061984;28;11449;-92
2022/10/15 11:15:52;;;;;;;;;0.00;0.00;;;;;;;;5046637;28;11424;-90
2022/10/15 11:18:42;;;;;;;;;0.00;0.00;;;;;;;;5041013;28;11465;-89
2022/10/15 11:21:26;;;;;;;;;0.00;0.00;;;;;;;;5052775;28;11399;-89
2022/10/15 11:23:51;;;;;;;;;0.00;0.00;;;;;;;;5054350;28;11453;-91
2022/10/15 11:26:26;;;;;;;;;0.00;0.00;;;;;;;;5063823;28;11429;-91
2022/10/15 11:29:05;;;;;;;;;0.00;0.00;;;;;;;;5061207;28;10017;-90
2022/10/15 11:31:43;;;;;;;;;0.00;0.00;;;;;;;;5038058;28;12228;-90
2022/10/15 11:34:14;;;;;;;;;0.00;0.00;;;;;;;;5061120;28;11502;-88
2022/10/15 11:36:39;;;;;;;;;0.00;0.00;;;;;;;;5056716;28;11410;-88
2022/10/15 11:39:04;;;;;;;;;0.00;0.00;;;;;;;;5061489;28;11580;-88
2022/10/15 11:41:47;;;;;;;;;0.00;0.00;;;;;;;;5056114;28;9519;-91
2022/10/15 11:44:31;;;;;;;;;0.00;0.00;;;;;;;;5060467;28;9554;-92
2022/10/15 11:46:59;;;;;;;;;0.00;0.00;;;;;;;;5064251;28;11451;-90
2022/10/15 11:49:43;;;;;;;;;0.00;0.00;;;;;;;;5061449;28;11496;-91
2022/10/15 11:52:26;;;;;;;;;0.00;0.00;;;;;;;;5054299;28;12308;-90
2022/10/15 11:55:03;;;;;;;;;0.00;0.00;;;;;;;;5061393;28;11424;-90
2022/10/15 11:57:31;;;;;;;;;0.00;0.00;;;;;;;;5046872;28;11432;-90
2022/10/15 11:59:59;;;;;;;;;0.00;0.00;;;;;;;;5043431;28;11488;-90
2022/10/15 12:02:24;;;;;;;;;0.00;0.00;;;;;;;;5066024;28;11416;-90
2022/10/15 12:04:55;;;;;;;;;0.00;0.00;;;;;;;;5058126;28;11489;-90
2022/10/15 12:07:28;;;;;;;;;0.00;0.00;;;;;;;;5063468;28;8835;-91
2022/10/15 12:09:56;;;;;;;;;0.00;0.00;;;;;;;;5049922;28;11403;-90
2022/10/15 12:12:21;;;;;;;;;0.00;0.00;;;;;;;;5043922;28;11426;-89
2022/10/15 12:14:46;;;;;;;;;0.00;0.00;;;;;;;;5065117;28;11532;-90
2022/10/15 12:17:21;;;;;;;;;0.00;0.00;;;;;;;;5038220;28;9726;-91
2022/10/15 12:19:51;;;;;;;;;0.00;0.00;;;;;;;;5052247;28;9071;-91
2022/10/15 12:22:36;;;;;;;;;0.00;0.00;;;;;;;;5065998;28;11406;-90
2022/10/15 12:25:02;;;;;;;;;0.00;0.00;;;;;;;;5036390;28;11436;-91
2022/10/15 12:27:29;;;;;;;;;0.00;0.00;;;;;;;;5060385;28;11432;-93
2022/10/15 12:30:06;;;;;;;;;0.00;0.00;;;;;;;;5043482;28;8807;-90
2022/10/15 12:32:41;;;;;;;;;0.00;0.00;;;;;;;;5060762;28;11525;-91
2022/10/15 12:35:15;;;;;;;;;0.00;0.00;;;;;;;;5062261;28;11431;-93
2022/10/15 12:37:42;;;;;;;;;0.00;0.00;;;;;;;;5060608;28;11431;-91
2022/10/15 12:40:22;;;;;;;;;0.00;0.00;;;;;;;;5064342;28;11341;-91
2022/10/15 12:42:59;;;;;;;;;0.00;0.00;;;;;;;;5056777;28;11460;-94
2022/10/15 12:45:35;;;;;;;;;0.00;0.00;;;;;;;;5041909;28;11431;-91
2022/10/15 12:48:03;;;;;;;;;0.00;0.00;;;;;;;;5055183;28;11748;-90
2022/10/15 12:50:30;;;;;;;;;0.00;0.00;;;;;;;;5059191;28;11466;-90
2022/10/15 12:52:55;;;;;;;;;0.00;0.00;;;;;;;;5052303;28;11423;-89
2022/10/15 12:55:20;;;;;;;;;0.00;0.00;;;;;;;;5033760;28;11469;-88
2022/10/15 12:57:45;;;;;;;;;0.00;0.00;;;;;;;;5059021;28;8835;-89
2022/10/15 13:00:26;;;;;;;;;0.00;0.00;;;;;;;;5054410;28;8920;-89
2022/10/15 13:02:52;;;;;;;;;0.00;0.00;;;;;;;;5047636;28;8809;-90
2022/10/15 13:05:33;;;;;;;;;0.00;0.00;;;;;;;;5059574;28;11418;-90
2022/10/15 13:08:00;;;;;;;;;0.00;0.00;;;;;;;;5056121;28;12415;-89
2022/10/15 13:10:28;;;;;;;;;0.00;0.00;;;;;;;;5066136;28;11351;-91
2022/10/15 13:12:55;;;;;;;;;0.00;0.00;;;;;;;;5051693;28;11448;-91
2022/10/15 13:15:22;;;;;;;;;0.00;0.00;;;;;;;;5059228;28;11422;-90
2022/10/15 13:17:48;;;;;;;;;0.00;0.00;;;;;;;;5065802;28;11437;-90
2022/10/15 13:20:30;;;;;;;;;0.00;0.00;;;;;;;;5058270;28;11570;-89
2022/10/15 13:23:13;;;;;;;;;0.00;0.00;;;;;;;;5057026;28;8777;-89
2022/10/15 13:25:38;;;;;;;;;0.00;0.00;;;;;;;;5062633;28;11470;-91
2022/10/15 13:28:21;;;;;;;;;0.00;0.00;;;;;;;;5044304;28;11428;-91
2022/10/15 13:30:47;;;;;;;;;0.00;0.00;;;;;;;;5041346;28;8791;-90
2022/10/15 13:33:13;;;;;;;;;0.00;0.00;;;;;;;;5059042;28;11423;-88
2022/10/15 13:35:39;;;;;;;;;0.00;0.00;;;;;;;;5057802;28;11497;-90
2022/10/15 13:38:04;;;;;;;;;0.00;0.00;;;;;;;;5068762;28;11573;-90
2022/10/15 13:40:30;;;;;;;;;0.00;0.00;;;;;;;;5072279;28;8844;-88
2022/10/15 13:43:01;;;;;;;;;0.00;0.00;;;;;;;;5062049;28;8783;-90
2022/10/15 13:45:26;;;;;;;;;0.00;0.00;;;;;;;;5058221;28;8810;-91
2022/10/15 13:47:53;;;;;;;;;0.00;0.00;;;;;;;;5062748;28;11444;-91
2022/10/15 13:50:20;;;;;;;;;0.00;0.00;;;;;;;;5065603;28;8934;-91
2022/10/15 13:53:04;;;;;;;;;0.00;0.00;;;;;;;;5061142;28;11461;-90
2022/10/15 13:55:32;;;;;;;;;0.00;0.00;;;;;;;;5040493;28;11479;-89
2022/10/15 13:58:17;;;;;;;;;0.00;0.00;;;;;;;;5064294;28;12164;-90
2022/10/15 14:00:48;;;;;;;;;0.00;0.00;;;;;;;;5061414;28;11456;-91
2022/10/15 14:03:43;;;;;;;;;0.00;0.00;;;;;;;;5041104;28;11446;-91
2022/10/15 14:06:14;;;;;;;;;0.00;0.00;;;;;;;;5039691;28;11432;-91
2022/10/15 14:08:39;;;;;;;;;0.00;0.00;;;;;;;;5053879;28;11462;-92
2022/10/15 14:11:04;;;;;;;;;0.00;0.00;;;;;;;;5064651;28;11471;-91
2022/10/15 14:13:29;;;;;;;;;0.00;0.00;;;;;;;;5041445;28;8857;-91
2022/10/15 14:15:58;;;;;;;;;0.00;0.00;;;;;;;;5044004;28;8931;-92
2022/10/15 14:18:34;;;;;;;;;0.00;0.00;;;;;;;;5043971;28;8806;-94
2022/10/15 14:21:00;;;;;;;;;0.00;0.00;;;;;;;;5038890;28;11436;-90
2022/10/15 14:23:26;;;;;;;;;0.00;0.00;;;;;;;;5058854;28;11398;-91
2022/10/15 14:25:53;;;;;;;;;0.00;0.00;;;;;;;;5057133;28;8807;-91
2022/10/15 14:28:20;;;;;;;;;0.00;0.00;;;;;;;;5053431;28;11441;-90
2022/10/15 14:30:46;;;;;;;;;0.00;0.00;;;;;;;;5032575;28;11430;-90
2022/10/15 14:33:32;;;;;;;;;0.00;0.00;;;;;;;;5044232;28;11483;-90
2022/10/15 14:36:06;;;;;;;;;0.00;0.00;;;;;;;;5062057;28;11435;-90
2022/10/15 14:38:31;;;;;;;;;0.00;0.00;;;;;;;;5039436;28;11757;-91
2022/10/15 14:41:07;;;;;;;;;0.00;0.00;;;;;;;;5059949;28;11467;-90
2022/10/15 14:43:34;;;;;;;;;0.00;0.00;;;;;;;;5054422;28;8898;-90
2022/10/15 14:46:00;;;;;;;;;0.00;0.00;;;;;;;;5041420;28;11430;-91
2022/10/15 14:48:30;;;;;;;;;0.00;0.00;;;;;;;;5035893;28;11505;-91
2022/10/15 14:50:59;;;;;;;;;0.00;0.00;;;;;;;;5034640;28;11651;-91
2022/10/15 14:53:26;;;;;;;;;0.00;0.00;;;;;;;;5044803;28;11405;-90
2022/10/15 14:55:55;;;;;;;;;0.00;0.00;;;;;;;;5062357;28;11541;-91
2022/10/15 14:58:22;;;;;;;;;0.00;0.00;;;;;;;;5060632;28;11424;-88
2022/10/15 15:00:53;;;;;;;;;0.00;0.00;;;;;;;;5060510;28;11405;-89